Tropical Cyclones
[Index]
Main Index Home Page Stock Weather Photos Extreme Storms Discussion Storm News and Storm Chasing Reports Tropical Cyclones / Hurricanes / Typhoons Weather Data and Links Wild Fires / Bushfires Weather Observation Techniques Weather Picture Catalogue Tornado Pictures and Reports Stock Video Footage and DVDs for sale
Season 1993-1994 Tropical Cyclone SARAH Track Map
Season 1993-1994 Summaries: [BoM-AU] [JTWC-AU] [JTWC-SIO] [JTWC-SPAC] [JTWC-SH]
<<- Previous TC | JTWC 1993-1994 Season | Next TC ->>

click for intensity scale information  Lat/long Grid: Show Hide

 Date Labels: Show Hide

Joint Typhoon Warning Centre Cyclone Data

Name: SARAH

18 Jan 1994 12:00 UTC to 29 Jan 1994 12:00 UTC

    date/time    lat    long     hPa   cat  kts
1994-01-18 12   17.3   173.8                  15          
1994-01-18 18   16.9   173.3                  15          
1994-01-19 00   16.5   172.9                  20          
1994-01-19 06   16.2   172.4                  25          
1994-01-19 12   16.0   172.0                  25          
1994-01-19 18   15.6   171.7                  25          
1994-01-20 00   15.0   171.4                  25          
1994-01-20 06   14.8   171.0                  25          
1994-01-20 12   14.5   170.5                  25          
1994-01-20 18   15.1   169.1                  25          
1994-01-21 00   15.7   167.5                  25          
1994-01-21 06   15.6   165.8                  25          
1994-01-21 12   15.5   164.9                  30          
1994-01-21 18   15.4   164.5                  30          
1994-01-22 00   15.2   164.1                  35          
1994-01-22 06   14.9   163.6            1     45          
1994-01-22 12   14.6   162.8            2     55          
1994-01-22 18   14.5   162.5            2     65          
1994-01-23 00   14.3   162.1            3     80          
1994-01-23 06   14.3   162.0            3     90          
1994-01-23 12   14.2   161.7            3     95          
1994-01-23 18   14.2   161.5            4    100          
1994-01-24 00   14.5   161.6            4    100          
1994-01-24 06   14.8   161.7            4    100          
1994-01-24 12   15.1   161.9            4    100          
1994-01-24 18   15.3   162.2            4    100          
1994-01-25 00   15.5   162.7            4    100          
1994-01-25 06   15.9   163.4            4    100          
1994-01-25 12   16.4   164.2            4    100          
1994-01-25 18   17.0   165.0            4    100          
1994-01-26 00   17.5   165.8            3     95          
1994-01-26 06   18.3   166.7            3     95          
1994-01-26 12   19.1   167.6            3     90          
1994-01-26 18   20.0   168.3            3     90          
1994-01-27 00   20.8   168.9            3     85          
1994-01-27 06   21.5   169.8            3     80          
1994-01-27 12   22.0   170.8            2     70          
1994-01-27 18   22.6   171.7            2     65          
1994-01-28 00   23.1   172.5            2     55          
1994-01-28 06   23.4   173.3            1     45          
1994-01-28 12   23.5   174.2            1     40          
1994-01-28 18   23.6   175.0                  35          
1994-01-29 00   23.7   175.8                  35          
1994-01-29 06   23.9   176.6                  30          
1994-01-29 12   24.1   177.2                  25          
Winds are 1-min average.

Tropical cyclone tracks developed by Michael Bath using data from the Joint Typhoon Warning Centre Best Tracks and Google Maps.


[Australian Severe Weather index] [Copyright Notice] [Email Contacts] [Search This Site] [Privacy Policy]
Document: tropical_cyclone_sarah.htm Updated: 18 September 2016